createdAt,value
2022-09-29T00:03:13.976Z,64.40
2022-09-29T00:08:17.310Z,64.30
2022-09-29T00:13:19.972Z,64.40
2022-09-29T00:18:23.889Z,64.50
2022-09-29T00:23:27.028Z,64.30
2022-09-29T00:28:29.916Z,64.30
2022-09-29T00:33:34.703Z,64.20
2022-09-29T00:38:37.726Z,64.20
2022-09-29T00:43:56.973Z,64.40
2022-09-29T00:49:02.262Z,64.40
2022-09-29T00:54:05.421Z,64.10
2022-09-29T00:59:09.793Z,64.30
2022-09-29T01:04:15.596Z,64.10
2022-09-29T01:09:19.313Z,64.20
2022-09-29T01:14:22.947Z,64.40
2022-09-29T01:19:31.077Z,64.30
2022-09-29T01:24:54.477Z,64.20
2022-09-29T01:30:06.957Z,64.40
2022-09-29T01:35:15.541Z,64.30
2022-09-29T01:40:19.833Z,64.20
2022-09-29T01:45:25.699Z,64.30
2022-09-29T01:50:31.376Z,64.20
2022-09-29T01:55:34.420Z,64.10
2022-09-29T02:00:38.953Z,64.10
2022-09-29T02:05:44.761Z,64.10
2022-09-29T02:10:49.962Z,64.00
2022-09-29T02:15:54.463Z,64.20
2022-09-29T02:20:58.493Z,63.90
2022-09-29T02:26:01.641Z,64.10
2022-09-29T02:31:04.334Z,64.00
2022-09-29T02:36:14.362Z,64.10
2022-09-29T02:41:20.171Z,63.90
2022-09-29T02:46:28.823Z,64.00
2022-09-29T02:51:35.546Z,64.00
2022-09-29T02:56:41.973Z,64.10
2022-09-29T03:01:49.087Z,63.90
2022-09-29T03:06:53.458Z,64.10
2022-09-29T03:11:56.071Z,64.00
2022-09-29T03:16:58.669Z,64.00
2022-09-29T03:22:03.602Z,63.90
2022-09-29T03:27:06.331Z,63.90
2022-09-29T03:32:08.918Z,64.00
2022-09-29T03:37:13.246Z,63.90
2022-09-29T03:42:17.319Z,63.60
2022-09-29T03:47:20.028Z,65.60
2022-09-29T03:52:23.941Z,65.80
2022-09-29T03:57:26.674Z,66.80
2022-09-29T04:02:29.349Z,66.60
2022-09-29T04:07:33.381Z,66.80
2022-09-29T04:12:35.977Z,66.90
2022-09-29T04:17:38.583Z,66.50
2022-09-29T04:22:43.467Z,65.90
2022-09-29T04:27:46.094Z,65.70
2022-09-29T04:32:48.665Z,65.40
2022-09-29T04:37:55.145Z,65.50
2022-09-29T04:42:57.723Z,65.40
2022-09-29T04:48:00.376Z,65.50
2022-09-29T04:53:04.350Z,65.10
2022-09-29T04:58:07.505Z,65.30
2022-09-29T05:03:10.086Z,65.10
2022-09-29T05:08:14.058Z,65.00
2022-09-29T05:13:16.634Z,65.00
2022-09-29T05:18:19.209Z,64.90
2022-09-29T05:23:23.247Z,64.70
2022-09-29T05:28:25.830Z,64.70
2022-09-29T05:33:28.793Z,64.80
2022-09-29T05:38:33.224Z,64.70
2022-09-29T05:43:35.814Z,64.60
2022-09-29T05:48:38.773Z,64.20
2022-09-29T05:53:42.781Z,64.30
2022-09-29T05:58:45.626Z,64.20
2022-09-29T06:03:48.652Z,64.30
2022-09-29T06:08:52.884Z,64.10
2022-09-29T06:13:56.065Z,64.10
2022-09-29T06:18:59.847Z,63.90
2022-09-29T06:24:04.067Z,63.90
2022-09-29T06:29:06.716Z,63.60
2022-09-29T06:34:10.524Z,63.60
2022-09-29T06:39:15.221Z,63.70
2022-09-29T06:44:17.832Z,64.30
2022-09-29T06:49:21.143Z,64.50
2022-09-29T06:54:25.734Z,64.70
2022-09-29T06:59:28.354Z,65.00
2022-09-29T07:04:30.981Z,65.20
2022-09-29T07:09:35.171Z,65.30
2022-09-29T07:14:37.762Z,65.80
2022-09-29T07:19:40.374Z,65.50
2022-09-29T07:24:44.422Z,65.20
2022-09-29T07:29:57.520Z,65.50
2022-09-29T07:35:06.019Z,64.90
2022-09-29T07:40:10.662Z,64.90
2022-09-29T07:45:13.229Z,64.80
2022-09-29T07:50:15.925Z,64.80
2022-09-29T07:55:21.154Z,64.60
2022-09-29T08:00:23.798Z,63.70
2022-09-29T08:05:27.356Z,64.00
2022-09-29T08:10:35.706Z,64.10
2022-09-29T08:15:40.806Z,63.70
2022-09-29T08:20:43.629Z,64.10
2022-09-29T08:25:59.252Z,63.80
2022-09-29T08:31:05.962Z,63.80
2022-09-29T08:36:14.435Z,63.40
2022-09-29T08:41:27.577Z,63.20
2022-09-29T08:46:35.823Z,63.30
2022-09-29T08:51:42.918Z,63.30
2022-09-29T08:56:47.114Z,63.30
2022-09-29T09:01:55.673Z,62.80
2022-09-29T09:07:06.593Z,62.80
2022-09-29T09:12:18.331Z,62.60
2022-09-29T09:17:26.437Z,62.30
2022-09-29T09:22:34.398Z,62.10
2022-09-29T09:27:41.721Z,62.10
2022-09-29T09:32:47.549Z,61.40
2022-09-29T09:37:50.659Z,61.50
2022-09-29T09:42:59.425Z,61.30
2022-09-29T09:48:06.965Z,61.90
2022-09-29T09:53:15.238Z,61.60
2022-09-29T09:58:33.018Z,61.70
2022-09-29T10:03:37.348Z,61.30
2022-09-29T10:08:42.051Z,61.40
2022-09-29T10:13:46.246Z,61.40
2022-09-29T10:18:52.514Z,61.40
2022-09-29T10:23:55.989Z,61.40
2022-09-29T10:29:02.525Z,61.20
2022-09-29T10:34:14.822Z,61.10
2022-09-29T10:39:31.419Z,61.10
2022-09-29T10:44:35.484Z,60.90
2022-09-29T10:49:38.143Z,60.80
2022-09-29T10:54:52.989Z,60.70
2022-09-29T10:59:59.649Z,61.00
2022-09-29T11:05:03.846Z,61.00
2022-09-29T11:10:09.350Z,60.90
2022-09-29T11:15:25.302Z,60.70
2022-09-29T11:20:31.991Z,60.70
2022-09-29T11:25:52.600Z,61.00
2022-09-29T11:31:03.564Z,60.80
2022-09-29T11:36:13.684Z,61.00
2022-09-29T11:41:25.505Z,60.90
2022-09-29T11:46:39.526Z,60.80
2022-09-29T11:51:52.107Z,60.70
2022-09-29T11:56:56.573Z,61.20
2022-09-29T12:02:09.217Z,62.60
2022-09-29T12:07:17.423Z,62.40
2022-09-29T12:12:24.596Z,62.70
2022-09-29T12:17:31.281Z,62.30
2022-09-29T12:22:36.868Z,62.40
2022-09-29T12:27:40.946Z,62.10
2022-09-29T12:32:49.415Z,61.80
2022-09-29T12:37:56.724Z,61.80
2022-09-29T12:43:09.789Z,62.10
2022-09-29T12:48:20.192Z,61.10
2022-09-29T12:53:24.238Z,61.60
2022-09-29T12:58:33.784Z,61.80
2022-09-29T13:03:51.333Z,61.50
2022-09-29T13:09:08.796Z,61.30
2022-09-29T13:14:32.179Z,61.10
2022-09-29T13:19:58.586Z,60.50
2022-09-29T13:25:06.030Z,61.10
2022-09-29T13:30:14.692Z,60.70
2022-09-29T13:35:19.714Z,60.60
2022-09-29T13:40:25.767Z,60.30
2022-09-29T13:45:41.107Z,60.30
2022-09-29T13:50:45.053Z,59.70
2022-09-29T13:55:53.181Z,58.80
2022-09-29T14:00:56.239Z,58.00
2022-09-29T14:06:36.152Z,58.20
2022-09-29T14:11:35.031Z,58.80
2022-09-29T14:16:44.433Z,58.70
2022-09-29T14:21:48.938Z,58.60
2022-09-29T14:26:54.461Z,58.80
2022-09-29T14:31:59.544Z,59.30
2022-09-29T14:37:03.648Z,58.90
2022-09-29T14:42:16.214Z,59.40
2022-09-29T14:47:47.865Z,59.30
2022-09-29T14:52:56.383Z,58.90
2022-09-29T14:58:12.024Z,58.90
2022-09-29T15:03:27.523Z,59.30
2022-09-29T15:08:34.274Z,58.90
2022-09-29T15:13:39.398Z,59.20
2022-09-29T15:18:52.488Z,58.80
2022-09-29T15:24:04.376Z,58.90
2022-09-29T15:29:13.456Z,58.90
2022-09-29T15:34:19.130Z,58.70
2022-09-29T15:39:53.307Z,58.90
2022-09-29T15:45:00.035Z,58.90
2022-09-29T15:50:05.730Z,59.20
2022-09-29T15:55:13.046Z,59.00
2022-09-29T16:00:39.782Z,58.80
2022-09-29T16:05:49.901Z,58.80
2022-09-29T16:10:55.158Z,58.90
2022-09-29T16:15:59.356Z,58.90
2022-09-29T16:21:06.605Z,58.90
2022-09-29T16:26:11.879Z,58.90
2022-09-29T16:31:20.681Z,58.50
2022-09-29T16:36:25.442Z,58.60
2022-09-29T16:41:34.307Z,58.80
2022-09-29T16:46:42.650Z,59.00
2022-09-29T16:51:48.272Z,59.00
2022-09-29T16:57:00.368Z,59.10
2022-09-29T17:02:06.122Z,59.20
2022-09-29T17:07:14.332Z,59.40
2022-09-29T17:12:17.704Z,59.30
2022-09-29T17:17:22.386Z,59.40
2022-09-29T17:22:28.194Z,59.50
2022-09-29T17:27:48.663Z,59.80
2022-09-29T17:32:52.474Z,59.70
2022-09-29T17:37:56.625Z,59.60
2022-09-29T17:43:00.261Z,59.90
2022-09-29T17:48:03.053Z,60.00
2022-09-29T17:53:07.341Z,60.00
2022-09-29T17:58:11.935Z,60.20
2022-09-29T18:03:14.596Z,60.10
2022-09-29T18:08:21.677Z,60.10
2022-09-29T18:13:27.182Z,60.30
2022-09-29T18:18:29.901Z,59.90
2022-09-29T18:23:34.986Z,60.00
2022-09-29T18:28:37.553Z,60.30
2022-09-29T18:33:40.155Z,60.30
2022-09-29T18:38:44.114Z,60.30
2022-09-29T18:43:46.976Z,60.30
2022-09-29T18:48:49.570Z,60.30
2022-09-29T18:53:53.497Z,60.50
2022-09-29T18:58:56.276Z,60.40
2022-09-29T19:03:58.906Z,60.40
2022-09-29T19:09:02.905Z,60.60
2022-09-29T19:14:05.800Z,60.40
2022-09-29T19:19:10.221Z,60.50
2022-09-29T19:24:14.177Z,60.60
2022-09-29T19:29:16.775Z,60.60
2022-09-29T19:34:19.366Z,60.30
2022-09-29T19:39:24.490Z,60.50
2022-09-29T19:44:31.494Z,60.50
2022-09-29T19:49:34.689Z,60.60
2022-09-29T19:54:39.927Z,60.80
2022-09-29T19:59:43.857Z,60.60
2022-09-29T20:04:46.433Z,60.60
2022-09-29T20:09:50.346Z,60.80
2022-09-29T20:14:55.649Z,60.50
2022-09-29T20:19:58.388Z,60.50
2022-09-29T20:25:02.318Z,60.70
2022-09-29T20:30:06.051Z,60.60
2022-09-29T20:35:08.935Z,60.50
2022-09-29T20:40:13.018Z,60.50
2022-09-29T20:45:19.115Z,60.40
2022-09-29T20:50:21.787Z,60.60
2022-09-29T20:55:25.725Z,60.80
2022-09-29T21:00:28.302Z,60.70
2022-09-29T21:05:30.882Z,60.80
2022-09-29T21:10:34.925Z,60.50
2022-09-29T21:15:37.549Z,60.30
2022-09-29T21:20:40.152Z,60.60
2022-09-29T21:25:44.084Z,60.60
2022-09-29T21:30:46.649Z,60.60
2022-09-29T21:35:56.088Z,60.50
2022-09-29T21:41:07.869Z,60.50
2022-09-29T21:46:11.082Z,60.60
2022-09-29T21:51:14.407Z,60.60
2022-09-29T21:56:19.556Z,60.60
2022-09-29T22:01:22.230Z,60.60
2022-09-29T22:06:25.714Z,60.60
2022-09-29T22:11:30.609Z,60.70
2022-09-29T22:16:33.981Z,60.50
2022-09-29T22:21:36.554Z,60.50
2022-09-29T22:26:42.411Z,60.40
2022-09-29T22:31:46.023Z,60.50
2022-09-29T22:36:48.761Z,60.40
2022-09-29T22:41:53.077Z,60.50
2022-09-29T22:46:55.743Z,60.50
2022-09-29T22:51:58.358Z,60.60
2022-09-29T22:57:02.422Z,60.70
2022-09-29T23:02:05.799Z,60.50
2022-09-29T23:07:09.105Z,60.30
2022-09-29T23:12:13.067Z,60.40
2022-09-29T23:17:15.768Z,60.60
2022-09-29T23:22:18.365Z,60.40
2022-09-29T23:27:22.424Z,60.30
2022-09-29T23:32:24.997Z,60.60
2022-09-29T23:37:47.557Z,60.50
2022-09-29T23:42:51.993Z,60.40
2022-09-29T23:47:54.750Z,60.40
2022-09-29T23:52:57.345Z,60.60
2022-09-29T23:58:01.334Z,60.30
